Weather History for Buckeye, AZ

Change the Weather History Date:

Saturday, June 15, 2013

  Actual Average (KGYR) Record (KGYR)
Temperature  
Mean Temperature 90 °F -  
Max Temperature 104 °F 100 °F 114 °F (2000)
Min Temperature 77 °F 71 °F 66 °F (1997)
Cooling Degree Days 26    
Growing Degree Days 40 (Base 50)    
Moisture  
Dew Point 32 °F    
Average Humidity 13    
Maximum Humidity 24    
Minimum Humidity 7    
Precipitation  
Precipitation 0.00 in - - ()
Sea Level Pressure  
Sea Level Pressure 29.80 in    
Wind  
Wind Speed 7 mph (SW)    
Max Wind Speed 17 mph    
Max Gust Speed 21 mph    
Visibility 10 miles    
Events      
Averages and records for this station are not official NWS values.
T = Trace of Precipitation, MM = Missing Value Source: NWS Daily Summary

Daily Weather History Graph

Daily Weather History Graph

Search for Another Location

Airport:

Trip Planner

Search our weather history database for the weather conditions in past years. The results will help you decide how hot, cold, wet, or windy it might be!

Date:

Astronomy

Jun. 15, 2013 Rise Set
Actual Time 5:20 AM MST 7:42 PM MST
Civil Twilight 4:51 AM MST 8:11 PM MST
Nautical Twilight 4:16 AM MST 8:46 PM MST
Astronomical Twilight 3:37 AM MST 9:25 PM MST
Moon 11:41 AM MST (6/15) No Moon Set
Length of Visible Light 15h 19m
Length of Day
14h 21m
Waxing Crescent, 40% of the Moon is Illuminated
Jun 15
Waxing Crescent
Jun 16
First Quarter
Jun 23
Full
Jun 29
Last Quarter
Jul 8
New

Hourly Weather History & Observations

Time (MST) Temp. Dew Point Humidity Pressure Visibility Wind Dir Wind Speed Gust Speed Precip Events Conditions
12:15 AM 82.4 °F 37.4 °F 20% 29.76 in 10.0 mi NNW 5.8 mph - N/A   Clear
12:35 AM 84.2 °F 32.0 °F 15% 29.76 in 10.0 mi West 5.8 mph - N/A   Clear
12:55 AM 82.4 °F 32.0 °F 16% 29.76 in 10.0 mi West 10.4 mph - N/A   Clear
1:15 AM 84.2 °F 28.4 °F 13% 29.76 in 10.0 mi West 10.4 mph - N/A   Clear
1:35 AM 80.6 °F 30.2 °F 16% 29.77 in 10.0 mi West 9.2 mph - N/A   Clear
1:55 AM 82.4 °F 30.2 °F 15% 29.77 in 10.0 mi WNW 6.9 mph - N/A   Clear
2:15 AM 84.2 °F 28.4 °F 13% 29.77 in 10.0 mi WNW 6.9 mph - N/A   Partly Cloudy
2:35 AM 82.4 °F 30.2 °F 15% 29.77 in 10.0 mi West 8.1 mph - N/A   Scattered Clouds
2:55 AM 80.6 °F 33.8 °F 18% 29.77 in 10.0 mi West 10.4 mph - N/A   Scattered Clouds
3:15 AM 80.6 °F 35.6 °F 20% 29.77 in 10.0 mi West 9.2 mph - N/A   Partly Cloudy
3:35 AM 80.6 °F 32.0 °F 17% 29.78 in 10.0 mi West 5.8 mph - N/A   Mostly Cloudy
3:55 AM 78.8 °F 32.0 °F 18% 29.79 in 10.0 mi NW 5.8 mph - N/A   Overcast
4:15 AM 77.0 °F 32.0 °F 19% 29.79 in 10.0 mi WNW 6.9 mph - N/A   Scattered Clouds
4:35 AM 78.8 °F 32.0 °F 18% 29.80 in 10.0 mi NW 6.9 mph - N/A   Partly Cloudy
4:55 AM 78.8 °F 32.0 °F 18% 29.81 in 10.0 mi WNW 5.8 mph - N/A   Mostly Cloudy
5:15 AM 77.0 °F 32.0 °F 19% 29.82 in 10.0 mi WNW 6.9 mph - N/A   Mostly Cloudy
5:35 AM 77.0 °F 32.0 °F 19% 29.82 in 10.0 mi WNW 6.9 mph - N/A   Mostly Cloudy
5:55 AM 77.0 °F 35.6 °F 22% 29.83 in 10.0 mi Calm Calm - N/A   Mostly Cloudy
6:15 AM 77.0 °F 37.4 °F 24% 29.84 in 10.0 mi Calm Calm - N/A   Partly Cloudy
6:35 AM 80.6 °F 37.4 °F 21% 29.84 in 7.0 mi Calm Calm - N/A   Clear
6:55 AM 84.2 °F 32.0 °F 15% 29.85 in 10.0 mi Calm Calm - N/A   Clear
7:15 AM 84.2 °F 32.0 °F 15% 29.85 in 10.0 mi Calm Calm - N/A   Clear
7:35 AM 86.0 °F 32.0 °F 14% 29.86 in 10.0 mi Calm Calm - N/A   Clear
7:55 AM 87.8 °F 32.0 °F 14% 29.86 in 10.0 mi Calm Calm - N/A   Clear
8:15 AM 89.6 °F 32.0 °F 13% 29.87 in 10.0 mi East 4.6 mph - N/A   Clear
8:35 AM 89.6 °F 32.0 °F 13% 29.87 in 10.0 mi ESE 3.5 mph - N/A   Clear
8:55 AM 89.6 °F 32.0 °F 13% 29.87 in 10.0 mi Calm Calm - N/A   Clear
9:15 AM 91.4 °F 30.2 °F 11% 29.87 in 10.0 mi Calm Calm - N/A   Clear
9:35 AM 91.4 °F 32.0 °F 12% 29.87 in 10.0 mi SE 5.8 mph - N/A   Clear
9:55 AM 93.2 °F 32.0 °F 11% 29.87 in 10.0 mi SE 3.5 mph - N/A   Clear
10:15 AM 93.2 °F 32.0 °F 11% 29.87 in 10.0 mi SSW 3.5 mph - N/A   Clear
10:35 AM 95.0 °F 30.2 °F 10% 29.87 in 10.0 mi South 6.9 mph - N/A   Clear
10:55 AM 95.0 °F 32.0 °F 11% 29.87 in 10.0 mi SSE 4.6 mph - N/A   Clear
11:15 AM 95.0 °F 28.4 °F 9% 29.86 in 10.0 mi Calm Calm - N/A   Clear
11:35 AM 98.6 °F 26.6 °F 8% 29.86 in 10.0 mi WNW 5.8 mph - N/A   Clear
11:55 AM 98.6 °F 28.4 °F 8% 29.85 in 10.0 mi NE 3.5 mph - N/A   Clear
12:15 PM 98.6 °F 30.2 °F 9% 29.85 in 10.0 mi SE 8.1 mph - N/A   Clear
12:35 PM 100.4 °F 28.4 °F 8% 29.84 in 10.0 mi East 6.9 mph - N/A   Clear
12:55 PM 100.4 °F 28.4 °F 8% 29.83 in 10.0 mi SW 8.1 mph - N/A   Clear
1:15 PM 100.4 °F 28.4 °F 8% 29.83 in 10.0 mi SW 8.1 mph - N/A   Clear
1:35 PM 102.2 °F 28.4 °F 7% 29.82 in 10.0 mi SW 6.9 mph - N/A   Clear
1:55 PM 102.2 °F 28.4 °F 7% 29.81 in 10.0 mi South 9.2 mph 16.1 mph N/A   Clear
2:15 PM 102.2 °F 28.4 °F 7% 29.80 in 10.0 mi WSW 10.4 mph - N/A   Clear
2:35 PM 102.2 °F 28.4 °F 7% 29.79 in 10.0 mi ESE 6.9 mph - N/A   Clear
2:55 PM 104.0 °F 30.2 °F 8% 29.78 in 10.0 mi South 9.2 mph - N/A   Clear
3:15 PM 104.0 °F 32.0 °F 8% 29.77 in 10.0 mi SSW 17.3 mph 20.7 mph N/A   Clear
3:35 PM 104.0 °F 32.0 °F 8% 29.77 in 10.0 mi South 6.9 mph - N/A   Clear
3:55 PM 104.0 °F 32.0 °F 8% 29.76 in 10.0 mi SSW 11.5 mph - N/A   Clear
4:15 PM 104.0 °F 32.0 °F 8% 29.75 in 10.0 mi South 8.1 mph - N/A   Clear
4:35 PM 104.0 °F 33.8 °F 9% 29.75 in 10.0 mi WSW 10.4 mph 20.7 mph N/A   Clear
4:55 PM 104.0 °F 32.0 °F 8% 29.75 in 10.0 mi WSW 10.4 mph 20.7 mph N/A   Clear
5:15 PM 104.0 °F 32.0 °F 8% 29.74 in 10.0 mi West 11.5 mph 18.4 mph N/A   Clear
5:35 PM 102.2 °F 32.0 °F 9% 29.74 in 10.0 mi SW 15.0 mph 19.6 mph N/A   Clear
5:55 PM 102.2 °F 32.0 °F 9% 29.74 in 10.0 mi SW 9.2 mph 16.1 mph N/A   Clear
6:15 PM 102.2 °F 32.0 °F 9% 29.75 in 10.0 mi SW 13.8 mph 20.7 mph N/A   Clear
6:35 PM 100.4 °F 30.2 °F 9% 29.75 in 10.0 mi WSW 9.2 mph - N/A   Clear
6:55 PM 100.4 °F 32.0 °F 9% 29.75 in 10.0 mi WSW 12.7 mph 17.3 mph N/A   Clear
7:15 PM 98.6 °F 32.0 °F 10% 29.76 in 10.0 mi SW 10.4 mph 17.3 mph N/A   Clear
7:35 PM 96.8 °F 30.2 °F 10% 29.76 in 10.0 mi SW 10.4 mph - N/A   Clear
7:55 PM 95.0 °F 30.2 °F 10% 29.77 in 10.0 mi SW 8.1 mph - N/A   Clear
8:15 PM 95.0 °F 28.4 °F 9% 29.77 in 9.0 mi WSW 9.2 mph - N/A   Clear
8:35 PM 93.2 °F 28.4 °F 10% 29.78 in 10.0 mi WSW 8.1 mph - N/A   Clear
8:55 PM 87.8 °F 37.4 °F 17% 29.79 in 7.0 mi South 4.6 mph - N/A   Clear
9:15 PM 87.8 °F 37.4 °F 17% 29.79 in 8.0 mi South 5.8 mph - N/A   Clear
9:35 PM 87.8 °F 33.8 °F 15% 29.80 in 10.0 mi South 4.6 mph - N/A   Clear
9:55 PM 86.0 °F 37.4 °F 18% 29.81 in 8.0 mi ESE 6.9 mph - N/A   Clear
10:15 PM 86.0 °F 35.6 °F 17% 29.82 in 10.0 mi SSE 4.6 mph - N/A   Clear
10:35 PM 84.2 °F 37.4 °F 19% 29.82 in 10.0 mi South 3.5 mph - N/A   Clear
10:55 PM 84.2 °F 33.8 °F 16% 29.82 in 10.0 mi SW 8.1 mph - N/A   Clear
11:15 PM 84.2 °F 30.2 °F 14% 29.82 in 10.0 mi SW 6.9 mph - N/A   Clear
11:35 PM 84.2 °F 28.4 °F 13% 29.82 in 10.0 mi WSW 11.5 mph - N/A   Clear
11:55 PM 82.4 °F 28.4 °F 14% 29.82 in 10.0 mi West 8.1 mph - N/A   Clear